Americus, Georgia
Current Conditions -  °F | °C
As of 11:15 AM on Sunday 25 Jan 2015 (Local Time) from KACJ Reporting Station
Clear Clear  
Wind Chill: 52°   Ceiling: Unl
Heat Index: 52°   Visibility: 10mi
Dew Point: 36°   Wind: 8mph
Humidity: 54%   Direction: 200°SSW
Pressure: 30.01"   Gusts: NA
Location:  32.07°N, 84.23°W
Report Text: KACJ 251615Z AUTO 20007KT 10SM CLR 11/02 A3001 RMK AO2
Loading
Personal Weather Stations






























Interactive Weather Map New forecast layout! Learn more

10-Day Weather Forecast

Advertisements
Track Severe Weather on mobile